createdAt,value
2023-07-24T00:01:40.739Z,24.40
2023-07-24T00:04:10.466Z,24.40
2023-07-24T00:06:40.344Z,24.40
2023-07-24T00:09:10.177Z,24.30
2023-07-24T00:11:40.979Z,24.40
2023-07-24T00:14:10.883Z,24.50
2023-07-24T00:16:40.630Z,24.50
2023-07-24T00:19:11.273Z,24.50
2023-07-24T00:21:41.054Z,24.40
2023-07-24T00:24:11.535Z,24.30
2023-07-24T00:26:41.274Z,24.10
2023-07-24T00:29:11.575Z,24.10
2023-07-24T00:31:41.275Z,24.00
2023-07-24T00:34:12.359Z,24.00
2023-07-24T00:36:43.229Z,24.00
2023-07-24T00:39:13.818Z,24.00
2023-07-24T00:41:45.488Z,23.90
2023-07-24T00:44:15.668Z,24.00
2023-07-24T00:46:45.501Z,23.90
2023-07-24T00:49:16.245Z,23.90
2023-07-24T00:51:47.095Z,23.70
2023-07-24T00:54:20.157Z,23.70
2023-07-24T00:56:50.280Z,23.80
2023-07-24T00:59:20.190Z,23.70
2023-07-24T01:01:51.600Z,23.70
2023-07-24T01:04:22.625Z,23.80
2023-07-24T01:06:53.068Z,23.90
2023-07-24T01:09:23.681Z,23.90
2023-07-24T01:12:00.069Z,24.00
2023-07-24T01:14:52.714Z,24.00
2023-07-24T01:17:29.191Z,24.00
2023-07-24T01:20:01.711Z,24.10
2023-07-24T01:22:43.682Z,24.20
2023-07-24T01:25:31.679Z,24.40
2023-07-24T01:28:03.443Z,24.50
2023-07-24T01:30:35.481Z,24.50
2023-07-24T01:33:06.453Z,24.60
2023-07-24T01:35:36.569Z,24.60
2023-07-24T01:38:07.820Z,24.70
2023-07-24T01:40:38.270Z,24.60
2023-07-24T01:43:08.498Z,24.50
2023-07-24T01:45:38.767Z,24.50
2023-07-24T01:48:09.983Z,24.60
2023-07-24T01:50:40.262Z,24.50
2023-07-24T01:53:09.999Z,24.50
2023-07-24T01:55:40.379Z,24.50
2023-07-24T01:58:10.253Z,24.50
2023-07-24T02:00:40.745Z,24.70
2023-07-24T02:03:10.872Z,24.60
2023-07-24T02:05:41.092Z,24.70
2023-07-24T02:08:11.343Z,24.70
2023-07-24T02:10:41.921Z,24.70
2023-07-24T02:13:14.214Z,24.70
2023-07-24T02:15:52.919Z,24.70
2023-07-24T02:18:23.081Z,24.60
2023-07-24T02:20:55.163Z,24.80
2023-07-24T02:23:27.866Z,24.90
2023-07-24T02:25:58.866Z,24.70
2023-07-24T02:28:29.714Z,24.70
2023-07-24T02:30:59.978Z,24.90
2023-07-24T02:33:30.165Z,24.90
2023-07-24T02:36:00.427Z,24.90
2023-07-24T02:38:30.204Z,25.10
2023-07-24T02:41:00.546Z,25.00
2023-07-24T02:43:30.346Z,25.10
2023-07-24T02:46:05.264Z,25.10
2023-07-24T02:48:35.369Z,25.10
2023-07-24T02:51:05.216Z,25.20
2023-07-24T02:53:35.258Z,25.30
2023-07-24T02:56:05.842Z,25.40
2023-07-24T02:58:35.901Z,25.30
2023-07-24T03:01:09.965Z,25.30
2023-07-24T03:03:40.109Z,25.50
2023-07-24T03:06:10.049Z,25.50
2023-07-24T03:08:40.035Z,25.60
2023-07-24T03:11:10.446Z,25.70
2023-07-24T03:13:43.604Z,25.80
2023-07-24T03:16:13.672Z,25.90
2023-07-24T03:18:43.491Z,25.90
2023-07-24T03:21:13.520Z,26.00
2023-07-24T03:23:43.466Z,26.00
2023-07-24T03:26:13.715Z,26.10
2023-07-24T03:28:43.526Z,26.20
2023-07-24T03:31:14.088Z,26.30
2023-07-24T03:33:43.912Z,26.30
2023-07-24T03:36:14.275Z,26.30
2023-07-24T03:38:44.637Z,26.40
2023-07-24T03:41:15.292Z,26.50
2023-07-24T03:43:45.062Z,26.20
2023-07-24T03:46:15.296Z,26.40
2023-07-24T03:48:45.148Z,26.60
2023-07-24T03:51:15.284Z,26.70
2023-07-24T03:53:45.037Z,26.70
2023-07-24T03:56:15.749Z,26.90
2023-07-24T03:58:45.759Z,27.00
2023-07-24T04:01:15.695Z,27.10
2023-07-24T04:03:45.740Z,27.40
2023-07-24T04:06:15.577Z,27.40
2023-07-24T04:08:45.572Z,27.40
2023-07-24T04:11:15.345Z,27.60
2023-07-24T04:13:45.545Z,27.70
2023-07-24T04:16:15.704Z,27.80
2023-07-24T04:18:46.076Z,27.90
2023-07-24T04:21:16.243Z,27.80
2023-07-24T04:23:46.838Z,27.90
2023-07-24T04:26:17.231Z,27.90
2023-07-24T04:28:47.412Z,28.10
2023-07-24T04:31:20.645Z,28.30
2023-07-24T04:33:50.766Z,28.30
2023-07-24T04:36:20.577Z,28.40
2023-07-24T04:38:50.650Z,28.50
2023-07-24T04:41:20.467Z,28.60
2023-07-24T04:43:50.441Z,28.90
2023-07-24T04:46:20.295Z,29.00
2023-07-24T04:48:50.301Z,29.00
2023-07-24T04:51:21.412Z,28.80
2023-07-24T04:53:51.629Z,28.90
2023-07-24T04:56:21.784Z,29.10
2023-07-24T04:58:51.800Z,29.30
2023-07-24T05:01:21.676Z,29.20
2023-07-24T05:03:51.751Z,29.20
2023-07-24T05:06:21.546Z,29.30
2023-07-24T05:08:51.474Z,29.40
2023-07-24T05:11:21.361Z,29.60
2023-07-24T05:13:51.634Z,29.70
2023-07-24T05:16:21.400Z,29.80
2023-07-24T05:18:51.304Z,29.80
2023-07-24T05:21:21.109Z,29.80
2023-07-24T05:23:51.089Z,29.60
2023-07-24T05:26:21.063Z,29.70
2023-07-24T05:28:51.124Z,30.10
2023-07-24T05:31:20.952Z,30.00
2023-07-24T05:33:50.923Z,30.30
2023-07-24T05:36:20.677Z,30.40
2023-07-24T05:38:50.660Z,30.50
2023-07-24T05:41:21.362Z,30.50
2023-07-24T05:43:52.035Z,30.60
2023-07-24T05:46:22.514Z,30.30
2023-07-24T05:48:52.994Z,30.20
2023-07-24T05:51:23.070Z,30.40
2023-07-24T05:53:53.514Z,30.60
2023-07-24T05:56:23.646Z,30.70
2023-07-24T05:58:54.055Z,30.60
2023-07-24T06:01:24.171Z,30.60
2023-07-24T06:03:54.820Z,30.90
2023-07-24T06:06:24.947Z,31.10
2023-07-24T06:08:55.040Z,31.20
2023-07-24T06:11:25.561Z,30.90
2023-07-24T06:13:56.035Z,30.60
2023-07-24T06:16:26.585Z,30.70
2023-07-24T06:18:56.447Z,31.00
2023-07-24T06:21:26.906Z,31.20
2023-07-24T06:23:59.803Z,31.30
2023-07-24T06:26:30.050Z,31.20
2023-07-24T06:28:59.897Z,31.30
2023-07-24T06:31:30.109Z,31.50
2023-07-24T06:33:59.946Z,31.50
2023-07-24T06:36:30.824Z,31.80
2023-07-24T06:39:01.252Z,31.90
2023-07-24T06:41:31.049Z,32.00
2023-07-24T06:44:01.240Z,32.00
2023-07-24T06:46:31.460Z,32.00
2023-07-24T06:49:01.733Z,32.20
2023-07-24T06:51:31.496Z,32.10
2023-07-24T06:54:01.494Z,32.10
2023-07-24T06:56:31.770Z,32.30
2023-07-24T06:59:02.524Z,32.30
2023-07-24T07:01:32.426Z,32.10
2023-07-24T07:04:02.527Z,31.90
2023-07-24T07:06:32.319Z,31.70
2023-07-24T07:09:02.415Z,31.20
2023-07-24T07:11:32.152Z,31.20
2023-07-24T07:14:02.450Z,31.20
2023-07-24T07:16:32.619Z,31.70
2023-07-24T07:19:02.960Z,31.80
2023-07-24T07:21:32.769Z,31.90
2023-07-24T07:24:02.722Z,32.10
2023-07-24T07:26:33.149Z,32.20
2023-07-24T07:29:03.276Z,32.30
2023-07-24T07:31:33.254Z,32.10
2023-07-24T07:34:03.203Z,32.20
2023-07-24T07:36:33.271Z,32.20
2023-07-24T07:39:03.986Z,32.10
2023-07-24T07:41:34.099Z,32.00
2023-07-24T07:44:04.022Z,31.80
2023-07-24T07:46:34.580Z,31.70
2023-07-24T07:49:04.357Z,31.60
2023-07-24T07:51:34.377Z,31.60
2023-07-24T07:54:04.239Z,31.70
2023-07-24T07:56:34.555Z,31.80
2023-07-24T07:59:04.784Z,31.70
2023-07-24T08:01:35.210Z,31.80
2023-07-24T08:04:05.006Z,31.60
2023-07-24T08:06:34.982Z,31.60
2023-07-24T08:09:05.759Z,31.80
2023-07-24T08:11:35.724Z,31.80
2023-07-24T08:14:05.777Z,31.40
2023-07-24T08:16:36.345Z,31.40
2023-07-24T08:19:06.188Z,31.30
2023-07-24T08:21:36.162Z,31.30
2023-07-24T08:24:06.157Z,31.30
2023-07-24T08:26:36.190Z,31.30
2023-07-24T08:29:06.036Z,31.20
2023-07-24T08:31:36.219Z,31.30
2023-07-24T08:34:06.069Z,31.20
2023-07-24T08:36:36.081Z,31.70
2023-07-24T08:39:06.122Z,31.90
2023-07-24T08:41:40.057Z,31.90
2023-07-24T08:44:11.407Z,31.70
2023-07-24T08:46:48.030Z,31.60
2023-07-24T08:49:18.804Z,31.30
2023-07-24T08:51:50.828Z,31.20
2023-07-24T08:54:23.137Z,31.20
2023-07-24T08:56:54.381Z,31.20
2023-07-24T08:59:25.132Z,31.10
2023-07-24T09:01:55.637Z,31.00
2023-07-24T09:04:26.664Z,31.10
2023-07-24T09:06:59.490Z,30.90
2023-07-24T09:09:34.407Z,30.90
2023-07-24T09:12:04.762Z,30.90
2023-07-24T09:14:34.891Z,30.70
2023-07-24T09:17:09.835Z,30.70
2023-07-24T09:19:41.014Z,30.80
2023-07-24T09:22:14.030Z,30.90
2023-07-24T09:24:58.732Z,30.90
2023-07-24T09:27:34.386Z,31.00
2023-07-24T09:30:16.413Z,31.10
2023-07-24T09:32:54.808Z,31.20
2023-07-24T09:35:30.756Z,31.30
2023-07-24T09:38:13.061Z,31.40
2023-07-24T09:40:47.622Z,31.30
2023-07-24T09:43:38.016Z,31.30
2023-07-24T09:46:11.661Z,31.50
2023-07-24T09:49:07.607Z,31.40
2023-07-24T09:51:37.038Z,31.20
2023-07-24T09:54:29.458Z,31.10
2023-07-24T09:57:15.023Z,31.00
2023-07-24T09:59:51.831Z,31.00
2023-07-24T10:02:22.866Z,31.00
2023-07-24T10:04:56.571Z,30.90
2023-07-24T10:07:27.620Z,30.80
2023-07-24T10:09:59.220Z,30.70
2023-07-24T10:12:34.237Z,30.60
2023-07-24T10:15:05.605Z,30.60
2023-07-24T10:17:42.676Z,30.70
2023-07-24T10:20:15.228Z,30.70
2023-07-24T10:22:48.427Z,30.70
2023-07-24T10:25:18.868Z,30.60
2023-07-24T10:27:50.140Z,30.60
2023-07-24T10:32:56.076Z,30.80
2023-07-24T10:35:27.294Z,30.80
2023-07-24T10:38:05.010Z,30.90
2023-07-24T10:40:38.216Z,30.90
2023-07-24T10:43:12.034Z,30.80
2023-07-24T10:45:44.333Z,30.70
2023-07-24T10:48:15.254Z,30.50
2023-07-24T10:50:48.704Z,30.60
2023-07-24T10:53:23.039Z,30.70
2023-07-24T10:55:54.465Z,30.70
2023-07-24T10:58:28.897Z,30.80
2023-07-24T11:01:00.499Z,30.70
2023-07-24T11:03:31.034Z,30.70
2023-07-24T11:06:01.814Z,30.70
2023-07-24T11:08:32.428Z,30.70
2023-07-24T11:11:03.717Z,30.70
2023-07-24T11:13:34.703Z,30.70
2023-07-24T11:16:10.317Z,30.60
2023-07-24T11:18:55.210Z,30.60
2023-07-24T11:21:28.759Z,30.60
2023-07-24T11:23:59.611Z,30.60
2023-07-24T11:26:32.657Z,30.60
2023-07-24T11:29:02.744Z,30.70
2023-07-24T11:31:41.855Z,30.60
2023-07-24T11:34:12.270Z,30.40
2023-07-24T11:36:42.206Z,30.40
2023-07-24T11:39:12.327Z,30.40
2023-07-24T11:41:42.450Z,30.40
2023-07-24T11:44:12.422Z,30.40
2023-07-24T11:46:44.017Z,30.40
2023-07-24T11:49:17.801Z,30.30
2023-07-24T11:51:47.739Z,30.30
2023-07-24T11:54:17.506Z,30.30
2023-07-24T11:56:47.572Z,30.30
2023-07-24T11:59:18.155Z,30.30
2023-07-24T12:01:52.258Z,30.30
2023-07-24T12:04:23.105Z,30.10
2023-07-24T12:06:54.389Z,30.10
2023-07-24T12:09:24.369Z,30.00
2023-07-24T12:11:54.085Z,30.00
2023-07-24T12:14:24.365Z,30.00
2023-07-24T12:17:08.502Z,30.10
2023-07-24T12:19:39.302Z,30.10
2023-07-24T12:22:10.310Z,30.10
2023-07-24T12:24:40.862Z,30.00
2023-07-24T12:27:10.825Z,30.00
2023-07-24T12:29:41.197Z,29.90
2023-07-24T12:32:10.967Z,29.90
2023-07-24T12:34:41.164Z,29.80
2023-07-24T12:37:11.416Z,29.90
2023-07-24T12:39:41.797Z,30.00
2023-07-24T12:42:13.670Z,30.00
2023-07-24T12:44:45.010Z,30.00
2023-07-24T12:47:15.632Z,29.80
2023-07-24T12:49:45.788Z,29.80
2023-07-24T12:52:16.233Z,29.60
2023-07-24T12:55:00.106Z,29.50
2023-07-24T12:57:33.381Z,29.50
2023-07-24T13:00:03.755Z,29.40
2023-07-24T13:02:34.736Z,29.50
2023-07-24T13:05:04.884Z,29.60
2023-07-24T13:07:34.725Z,29.70
2023-07-24T13:10:05.009Z,29.70
2023-07-24T13:12:35.112Z,29.80
2023-07-24T13:15:05.716Z,29.70
2023-07-24T13:17:35.915Z,29.70
2023-07-24T13:20:05.877Z,29.70
2023-07-24T13:22:36.611Z,29.80
2023-07-24T13:25:07.764Z,29.70
2023-07-24T13:27:37.730Z,29.70
2023-07-24T13:30:08.330Z,29.70
2023-07-24T13:32:38.356Z,29.60
2023-07-24T13:35:08.859Z,29.60
2023-07-24T13:37:39.364Z,29.60
2023-07-24T13:40:09.958Z,29.30
2023-07-24T13:42:40.179Z,29.40
2023-07-24T13:45:10.867Z,29.30
2023-07-24T13:47:41.136Z,29.40
2023-07-24T13:50:11.387Z,29.30
2023-07-24T13:52:41.524Z,29.40
2023-07-24T13:55:11.428Z,29.30
2023-07-24T13:57:41.414Z,29.30
2023-07-24T14:00:12.165Z,29.30
2023-07-24T14:02:43.244Z,29.30
2023-07-24T14:05:13.259Z,29.40
2023-07-24T14:07:42.998Z,29.20
2023-07-24T14:10:13.319Z,29.20
2023-07-24T14:12:43.472Z,29.10
2023-07-24T14:15:14.948Z,29.10
2023-07-24T14:17:45.683Z,29.00
2023-07-24T14:20:16.174Z,29.00
2023-07-24T14:22:46.442Z,29.00
2023-07-24T14:25:18.321Z,28.90
2023-07-24T14:27:48.705Z,28.70
2023-07-24T14:30:19.345Z,28.70
2023-07-24T14:32:52.948Z,28.70
2023-07-24T14:35:23.628Z,28.70
2023-07-24T14:37:55.396Z,28.90
2023-07-24T14:40:25.999Z,28.90
2023-07-24T14:42:56.139Z,28.70
2023-07-24T14:45:28.825Z,28.50
2023-07-24T14:47:58.812Z,28.60
2023-07-24T14:50:28.676Z,28.50
2023-07-24T14:52:59.018Z,28.70
2023-07-24T14:55:29.206Z,28.90
2023-07-24T14:57:59.771Z,28.90
2023-07-24T15:00:31.115Z,28.60
2023-07-24T15:03:01.806Z,28.40
2023-07-24T15:05:32.294Z,28.40
2023-07-24T15:08:03.228Z,28.20
2023-07-24T15:10:33.979Z,28.10
2023-07-24T15:13:04.286Z,28.20
2023-07-24T15:15:34.458Z,28.30
2023-07-24T15:18:05.467Z,28.40
2023-07-24T15:20:36.006Z,28.50
2023-07-24T15:23:07.711Z,28.40
2023-07-24T15:25:41.089Z,28.50
2023-07-24T15:28:11.577Z,28.60
2023-07-24T15:30:43.332Z,28.60
2023-07-24T15:33:13.477Z,28.60
2023-07-24T15:35:43.685Z,28.70
2023-07-24T15:38:14.036Z,28.70
2023-07-24T15:40:44.188Z,28.70
2023-07-24T15:43:16.388Z,28.70
2023-07-24T15:45:46.826Z,28.70
2023-07-24T15:48:22.801Z,28.60
2023-07-24T15:50:57.629Z,28.60
2023-07-24T15:53:28.147Z,28.50
2023-07-24T15:55:58.330Z,28.40
2023-07-24T15:58:30.311Z,28.10
2023-07-24T16:01:00.921Z,28.00
2023-07-24T16:03:31.085Z,27.90
2023-07-24T16:06:00.888Z,27.80
2023-07-24T16:08:30.817Z,27.70
2023-07-24T16:11:01.163Z,27.70
2023-07-24T16:13:31.647Z,27.80
2023-07-24T16:16:01.733Z,27.90
2023-07-24T16:18:32.526Z,28.00
2023-07-24T16:21:03.637Z,28.20
2023-07-24T16:23:34.271Z,28.20
2023-07-24T16:26:04.545Z,28.10
2023-07-24T16:28:34.510Z,28.10
2023-07-24T16:31:04.642Z,28.10
2023-07-24T16:33:35.074Z,28.20
2023-07-24T16:36:05.417Z,28.20
2023-07-24T16:38:35.946Z,28.10
2023-07-24T16:41:06.150Z,28.10
2023-07-24T16:43:39.566Z,28.10
2023-07-24T16:46:25.735Z,28.10
2023-07-24T16:48:56.601Z,28.00
2023-07-24T16:51:27.860Z,28.10
2023-07-24T16:53:58.946Z,28.10
2023-07-24T16:56:29.393Z,28.10
2023-07-24T16:58:59.492Z,28.00
2023-07-24T17:01:30.560Z,27.90
2023-07-24T17:04:01.179Z,27.80
2023-07-24T17:06:31.507Z,27.80
2023-07-24T17:09:01.870Z,27.80
2023-07-24T17:11:32.875Z,27.70
2023-07-24T17:14:03.190Z,27.70
2023-07-24T17:16:33.127Z,27.80
2023-07-24T17:19:03.190Z,27.80
2023-07-24T17:21:34.222Z,27.90
2023-07-24T17:24:05.216Z,27.90
2023-07-24T17:26:37.059Z,27.90
2023-07-24T17:29:07.590Z,27.70
2023-07-24T17:31:37.877Z,27.60
2023-07-24T17:34:07.989Z,27.80
2023-07-24T17:36:38.085Z,27.80
2023-07-24T17:39:08.088Z,27.90
2023-07-24T17:41:37.855Z,27.70
2023-07-24T17:44:08.986Z,27.50
2023-07-24T17:46:39.509Z,27.50
2023-07-24T17:49:09.648Z,27.50
2023-07-24T17:51:40.199Z,27.50
2023-07-24T17:54:10.424Z,27.50
2023-07-24T17:56:40.872Z,27.50
2023-07-24T17:59:11.162Z,27.50
2023-07-24T18:01:41.766Z,27.50
2023-07-24T18:04:12.579Z,27.50
2023-07-24T18:06:42.742Z,27.60
2023-07-24T18:09:14.728Z,27.50
2023-07-24T18:11:46.984Z,27.40
2023-07-24T18:14:17.745Z,27.50
2023-07-24T18:16:48.110Z,27.60
2023-07-24T18:19:19.015Z,27.70
2023-07-24T18:21:49.339Z,27.70
2023-07-24T18:24:21.571Z,27.80
2023-07-24T18:26:52.994Z,27.80
2023-07-24T18:29:23.320Z,27.80
2023-07-24T18:31:53.514Z,27.80
2023-07-24T18:34:25.584Z,27.70
2023-07-24T18:36:57.511Z,27.80
2023-07-24T18:39:28.102Z,27.80
2023-07-24T18:41:58.290Z,27.80
2023-07-24T18:44:28.925Z,27.80
2023-07-24T18:46:59.017Z,27.80
2023-07-24T18:49:29.731Z,27.80
2023-07-24T18:52:00.126Z,27.70
2023-07-24T18:54:30.303Z,27.70
2023-07-24T18:57:02.190Z,27.60
2023-07-24T18:59:32.568Z,27.60
2023-07-24T19:02:04.827Z,27.50
2023-07-24T19:04:35.684Z,27.50
2023-07-24T19:07:06.259Z,27.60
2023-07-24T19:09:36.048Z,27.70
2023-07-24T19:12:07.624Z,27.70
2023-07-24T19:14:38.098Z,27.70
2023-07-24T19:17:09.873Z,27.60
2023-07-24T19:19:40.855Z,27.60
2023-07-24T19:22:11.195Z,27.60
2023-07-24T19:24:42.901Z,27.50
2023-07-24T19:27:13.556Z,27.50
2023-07-24T19:29:43.758Z,27.40
2023-07-24T19:32:14.094Z,27.50
2023-07-24T19:34:46.732Z,27.50
2023-07-24T19:37:17.249Z,27.40
2023-07-24T19:39:47.385Z,26.70
2023-07-24T19:42:17.683Z,26.20
2023-07-24T19:44:48.361Z,26.00
2023-07-24T19:47:19.924Z,25.90
2023-07-24T19:49:52.403Z,25.70
2023-07-24T19:52:22.877Z,25.40
2023-07-24T19:54:54.302Z,25.10
2023-07-24T19:57:24.646Z,24.90
2023-07-24T19:59:54.798Z,24.50
2023-07-24T20:02:25.214Z,24.50
2023-07-24T20:04:55.744Z,24.50
2023-07-24T20:07:26.156Z,24.30
2023-07-24T20:09:57.196Z,24.40
2023-07-24T20:12:28.978Z,24.50
2023-07-24T20:14:59.341Z,24.40
2023-07-24T20:17:29.573Z,24.50
2023-07-24T20:19:59.815Z,24.60
2023-07-24T20:22:29.560Z,24.50
2023-07-24T20:24:59.858Z,24.50
2023-07-24T20:27:30.000Z,24.70
2023-07-24T20:30:03.141Z,24.80
2023-07-24T20:32:35.922Z,24.70
2023-07-24T20:35:06.316Z,24.70
2023-07-24T20:37:36.544Z,24.80
2023-07-24T20:40:07.202Z,24.90
2023-07-24T20:42:36.957Z,24.90
2023-07-24T20:45:09.176Z,24.90
2023-07-24T20:47:41.484Z,25.00
2023-07-24T20:50:13.151Z,24.90
2023-07-24T20:52:45.921Z,24.80
2023-07-24T20:55:17.072Z,24.60
2023-07-24T20:57:48.845Z,24.70
2023-07-24T21:00:19.263Z,24.60
2023-07-24T21:02:51.618Z,24.50
2023-07-24T21:05:21.888Z,24.40
2023-07-24T21:07:51.629Z,24.20
2023-07-24T21:10:23.484Z,24.20
2023-07-24T21:12:55.564Z,24.30
2023-07-24T21:15:25.821Z,24.30
2023-07-24T21:17:57.464Z,24.50
2023-07-24T21:20:28.445Z,24.50
2023-07-24T21:22:58.568Z,24.40
2023-07-24T21:25:30.692Z,24.40
2023-07-24T21:28:01.066Z,24.30
2023-07-24T21:30:31.333Z,24.30
2023-07-24T21:33:01.685Z,24.40
2023-07-24T21:35:32.089Z,24.30
2023-07-24T21:38:02.190Z,24.40
2023-07-24T21:40:32.712Z,24.60
2023-07-24T21:43:03.131Z,24.80
2023-07-24T21:45:33.247Z,25.00
2023-07-24T21:48:05.327Z,25.00
2023-07-24T21:50:35.692Z,25.00
2023-07-24T21:53:11.413Z,24.90
2023-07-24T21:55:42.413Z,24.60
2023-07-24T21:58:13.174Z,24.50
2023-07-24T22:00:43.510Z,24.60
2023-07-24T22:03:14.492Z,24.70
2023-07-24T22:05:46.320Z,24.80
2023-07-24T22:08:16.922Z,24.90
2023-07-24T22:10:47.035Z,24.80
2023-07-24T22:13:17.523Z,24.50
2023-07-24T22:15:47.667Z,24.70
2023-07-24T22:18:20.591Z,24.70
2023-07-24T22:20:51.467Z,24.80
2023-07-24T22:23:21.634Z,24.80
2023-07-24T22:25:52.129Z,24.90
2023-07-24T22:28:22.208Z,24.90
2023-07-24T22:30:52.942Z,24.70
2023-07-24T22:33:24.244Z,24.60
2023-07-24T22:36:03.136Z,24.70
2023-07-24T22:38:33.468Z,24.60
2023-07-24T22:41:15.345Z,24.60
2023-07-24T22:43:45.670Z,24.50
2023-07-24T22:46:15.987Z,24.40
2023-07-24T22:48:46.208Z,24.40
2023-07-24T22:51:16.693Z,24.40
2023-07-24T22:53:47.249Z,24.40
2023-07-24T22:56:17.386Z,24.50
2023-07-24T22:59:20.201Z,24.40
2023-07-24T23:01:51.938Z,24.40
2023-07-24T23:04:25.673Z,24.40
2023-07-24T23:07:02.581Z,24.40
2023-07-24T23:09:33.579Z,24.50
2023-07-24T23:12:04.855Z,24.40
2023-07-24T23:14:37.197Z,24.40
2023-07-24T23:17:07.749Z,24.40
2023-07-24T23:19:41.255Z,24.40
2023-07-24T23:22:11.799Z,24.40
2023-07-24T23:24:42.384Z,24.40
2023-07-24T23:27:12.582Z,24.50
2023-07-24T23:29:42.909Z,24.50
2023-07-24T23:32:13.074Z,24.60
2023-07-24T23:34:43.344Z,24.50
2023-07-24T23:37:15.479Z,24.40
2023-07-24T23:39:45.965Z,24.30
2023-07-24T23:42:17.650Z,24.20
2023-07-24T23:44:48.304Z,24.30
2023-07-24T23:47:19.705Z,24.20
2023-07-24T23:49:50.086Z,24.20
2023-07-24T23:52:20.176Z,24.10
2023-07-24T23:54:50.497Z,24.20
2023-07-24T23:57:21.445Z,24.30
2023-07-24T23:59:51.824Z,24.20
